Time;durP1;ratioP1;P1;durP2;ratioP2;P2;SDS_P1;SDS_P2;PMS_P1;PMS_P2;Temp;Humidity;BMP_temperature;BMP_pressure;BME280_temperature;BME280_humidity;BME280_pressure;Samples;Min_cycle;Max_cycle;Signal;HPM_P1;HPM_P2
2024/01/15 00:00:47;;;;;;;;;;;1.40;99.90;;;;;;5132048;27;20303;-32
2024/01/15 00:03:13;;;;;;;;;;;1.40;99.90;;;;;;5115525;27;20410;-31
2024/01/15 00:05:41;;;;;;;;;;;1.40;99.90;;;;;;5115244;27;19923;-32
2024/01/15 00:08:08;;;;;;;;;;;1.40;99.90;;;;;;5115443;27;19976;-31
2024/01/15 00:10:34;;;;;;;;;;;1.40;99.90;;;;;;5115568;27;19979;-31
2024/01/15 00:13:01;;;;;;;;;;;1.30;99.90;;;;;;5114908;27;19931;-31
2024/01/15 00:15:28;;;;;;;;;;;1.40;99.90;;;;;;5114424;27;19984;-32
2024/01/15 00:17:55;;;;;;;;;;;1.40;99.90;;;;;;5115177;27;19942;-31
2024/01/15 00:20:21;;;;;;;;;;;1.40;99.90;;;;;;5132920;27;19924;-31
2024/01/15 00:22:49;;;;;;;;;;;1.40;99.90;;;;;;5115293;27;19983;-31
2024/01/15 00:25:16;;;;;;;;;;;1.40;99.90;;;;;;5115160;27;19927;-32
2024/01/15 00:27:42;;;;;;;;;;;1.30;99.90;;;;;;5132920;27;19927;-31
2024/01/15 00:30:09;;;;;;;;;;;1.40;99.90;;;;;;5113255;27;19976;-33
2024/01/15 00:32:36;;;;;;;;;;;1.40;99.90;;;;;;5132743;27;19924;-32
2024/01/15 00:35:03;;;;;;;;;;;1.30;99.90;;;;;;5133252;27;19923;-35
2024/01/15 00:37:30;;;;;;;;;;;1.40;99.90;;;;;;5114627;27;20018;-33
2024/01/15 00:39:58;;;;;;;;;;;1.40;99.90;;;;;;5114593;27;19924;-32
2024/01/15 00:42:24;;;;;;;;;;;1.40;99.90;;;;;;5113733;28;19927;-32
2024/01/15 00:44:51;;;;;;;;;;;1.30;99.90;;;;;;5113704;28;19923;-33
2024/01/15 00:47:18;;;;;;;;;;;1.40;99.90;;;;;;5106503;28;20292;-32
2024/01/15 00:49:45;;;;;;;;;;;1.40;99.90;;;;;;5105503;28;19928;-33
2024/01/15 00:52:12;;;;;;;;;;;1.40;99.90;;;;;;5130655;27;19971;-33
2024/01/15 00:54:40;;;;;;;;;;;1.40;99.90;;;;;;5110997;28;19923;-32
2024/01/15 00:57:07;;;;;;;;;;;1.40;99.90;;;;;;5111472;28;19931;-32
2024/01/15 00:59:34;;;;;;;;;;;1.40;99.90;;;;;;5111909;28;20340;-32
2024/01/15 01:02:02;;;;;;;;;;;1.50;99.90;;;;;;5114497;28;20382;-33
2024/01/15 01:04:28;;;;;;;;;;;1.50;99.90;;;;;;5132472;28;20374;-32
2024/01/15 01:06:55;;;;;;;;;;;1.50;99.90;;;;;;5113323;28;19928;-33
2024/01/15 01:09:22;;;;;;;;;;;1.60;99.90;;;;;;5114883;28;19927;-33
2024/01/15 01:11:48;;;;;;;;;;;1.60;99.90;;;;;;5114801;28;19927;-34
2024/01/15 01:14:16;;;;;;;;;;;1.60;99.90;;;;;;5114736;28;20347;-32
2024/01/15 01:16:43;;;;;;;;;;;1.60;99.90;;;;;;5114643;28;20528;-32
2024/01/15 01:19:10;;;;;;;;;;;1.70;99.90;;;;;;5114720;28;19923;-32
2024/01/15 01:21:36;;;;;;;;;;;1.70;99.90;;;;;;5114545;28;19927;-32
2024/01/15 01:24:03;;;;;;;;;;;1.80;99.90;;;;;;5114785;28;19924;-31
2024/01/15 01:26:29;;;;;;;;;;;1.80;99.90;;;;;;5113624;28;19931;-31
2024/01/15 01:28:56;;;;;;;;;;;1.90;99.90;;;;;;5132462;28;20336;-34
2024/01/15 01:31:24;;;;;;;;;;;1.90;99.90;;;;;;5114405;28;19976;-32
2024/01/15 01:33:51;;;;;;;;;;;1.90;99.90;;;;;;5114721;28;19991;-32
2024/01/15 01:36:18;;;;;;;;;;;1.80;99.90;;;;;;5131239;28;19923;-32
2024/01/15 01:38:44;;;;;;;;;;;1.90;99.90;;;;;;5114893;28;19923;-31
2024/01/15 01:41:11;;;;;;;;;;;1.80;99.90;;;;;;5121101;28;19923;-32
2024/01/15 01:43:38;;;;;;;;;;;1.70;99.90;;;;;;5114650;28;19923;-32
2024/01/15 01:46:04;;;;;;;;;;;1.80;99.90;;;;;;5114273;28;19972;-31
2024/01/15 01:48:32;;;;;;;;;;;1.70;99.90;;;;;;5116061;27;19927;-31
2024/01/15 01:51:00;;;;;;;;;;;1.60;99.90;;;;;;5117923;27;20370;-32
2024/01/15 01:53:26;;;;;;;;;;;1.60;99.90;;;;;;5118589;27;19924;-33
2024/01/15 01:55:53;;;;;;;;;;;1.60;99.90;;;;;;5118305;27;19992;-33
2024/01/15 01:58:20;;;;;;;;;;;1.50;99.90;;;;;;5117597;27;19924;-31
2024/01/15 02:00:46;;;;;;;;;;;1.60;99.90;;;;;;5118638;27;19948;-33
2024/01/15 02:03:13;;;;;;;;;;;1.60;99.90;;;;;;5135630;27;19976;-32
2024/01/15 02:05:41;;;;;;;;;;;1.60;99.90;;;;;;5135909;27;19976;-31
2024/01/15 02:08:08;;;;;;;;;;;1.50;99.90;;;;;;5136391;27;19924;-32
2024/01/15 02:10:35;;;;;;;;;;;1.60;99.90;;;;;;5136409;27;19987;-31
2024/01/15 02:13:01;;;;;;;;;;;1.50;99.90;;;;;;5136126;27;19928;-34
2024/01/15 02:15:28;;;;;;;;;;;1.50;99.90;;;;;;5117507;27;19972;-31
2024/01/15 02:17:58;;;;;;;;;;;1.50;99.90;;;;;;5117072;27;20188;-33
2024/01/15 02:20:25;;;;;;;;;;;1.60;99.90;;;;;;5116624;27;19950;-33
2024/01/15 02:22:53;;;;;;;;;;;1.60;99.90;;;;;;5135502;27;20371;-32
2024/01/15 02:25:21;;;;;;;;;;;1.60;99.90;;;;;;5119403;27;19923;-32
2024/01/15 02:27:47;;;;;;;;;;;1.60;99.90;;;;;;5117808;27;20398;-33
2024/01/15 02:30:14;;;;;;;;;;;1.60;99.90;;;;;;5117873;27;19927;-32
2024/01/15 02:32:41;;;;;;;;;;;1.70;99.90;;;;;;5117470;27;19923;-33
2024/01/15 02:35:08;;;;;;;;;;;1.70;99.90;;;;;;5117970;27;19965;-32
2024/01/15 02:37:34;;;;;;;;;;;1.70;99.90;;;;;;5134132;27;20431;-33
2024/01/15 02:40:01;;;;;;;;;;;1.70;99.90;;;;;;5117841;27;19923;-32
2024/01/15 02:42:29;;;;;;;;;;;1.70;99.90;;;;;;5135262;27;19927;-32
2024/01/15 02:44:55;;;;;;;;;;;1.70;99.90;;;;;;5117674;27;19934;-33
2024/01/15 02:47:22;;;;;;;;;;;1.70;99.90;;;;;;5117061;27;19931;-32
2024/01/15 02:49:49;;;;;;;;;;;1.70;99.90;;;;;;5134130;27;19923;-33
2024/01/15 02:52:15;;;;;;;;;;;1.70;99.90;;;;;;5117380;27;19977;-33
2024/01/15 02:54:42;;;;;;;;;;;1.70;99.90;;;;;;5117047;27;19984;-33
2024/01/15 02:57:09;;;;;;;;;;;1.80;99.90;;;;;;5116897;27;19924;-32
2024/01/15 02:59:37;;;;;;;;;;;1.80;99.90;;;;;;5115417;27;20420;-32
2024/01/15 03:02:03;;;;;;;;;;;1.80;99.90;;;;;;5117129;27;20336;-33
2024/01/15 03:04:30;;;;;;;;;;;1.80;99.90;;;;;;5116667;27;19953;-32
2024/01/15 03:06:57;;;;;;;;;;;1.80;99.90;;;;;;5116449;27;19928;-32
2024/01/15 03:09:23;;;;;;;;;;;1.80;99.90;;;;;;5116954;27;19923;-32
2024/01/15 03:11:50;;;;;;;;;;;1.90;99.90;;;;;;5134884;27;19927;-33
2024/01/15 03:14:16;;;;;;;;;;;1.80;99.90;;;;;;5116347;27;19971;-32
2024/01/15 03:16:44;;;;;;;;;;;1.90;99.90;;;;;;5134582;27;20280;-32
2024/01/15 03:19:11;;;;;;;;;;;1.90;99.90;;;;;;5116866;27;20372;-32
2024/01/15 03:21:38;;;;;;;;;;;1.90;99.90;;;;;;5116693;27;20312;-32
2024/01/15 03:24:05;;;;;;;;;;;1.80;99.90;;;;;;5116627;27;19978;-32
2024/01/15 03:26:31;;;;;;;;;;;1.80;99.90;;;;;;5116342;27;20298;-33
2024/01/15 03:28:58;;;;;;;;;;;1.80;99.90;;;;;;5134633;27;19970;-32
2024/01/15 03:31:24;;;;;;;;;;;1.80;99.90;;;;;;5116087;27;19924;-32
2024/01/15 03:33:52;;;;;;;;;;;1.70;99.90;;;;;;5135243;27;19924;-33
2024/01/15 03:36:19;;;;;;;;;;;1.70;99.90;;;;;;5116626;27;19973;-33
2024/01/15 03:38:46;;;;;;;;;;;1.70;99.90;;;;;;5134492;27;20022;-32
2024/01/15 03:41:13;;;;;;;;;;;1.80;99.90;;;;;;5134286;27;20379;-32
2024/01/15 03:43:40;;;;;;;;;;;1.80;99.90;;;;;;5134351;27;19934;-32
2024/01/15 03:46:06;;;;;;;;;;;1.80;99.90;;;;;;5134074;27;19929;-32
2024/01/15 03:48:33;;;;;;;;;;;1.90;99.90;;;;;;5116160;27;19931;-31
2024/01/15 03:51:01;;;;;;;;;;;1.90;99.90;;;;;;5115922;27;20014;-31
2024/01/15 03:53:28;;;;;;;;;;;1.90;99.90;;;;;;5134319;27;19923;-33
2024/01/15 03:55:54;;;;;;;;;;;1.90;99.90;;;;;;5115672;27;20340;-32
2024/01/15 03:58:21;;;;;;;;;;;1.90;99.90;;;;;;5133737;27;19923;-31
2024/01/15 04:00:48;;;;;;;;;;;1.90;99.90;;;;;;5132294;27;19927;-32
2024/01/15 04:03:14;;;;;;;;;;;1.80;99.90;;;;;;5134121;27;19952;-32
2024/01/15 04:05:41;;;;;;;;;;;1.80;99.90;;;;;;5116063;27;19924;-31
2024/01/15 04:08:09;;;;;;;;;;;1.80;99.90;;;;;;5133603;27;19927;-32
2024/01/15 04:10:35;;;;;;;;;;;1.80;99.90;;;;;;5115661;27;19927;-34
2024/01/15 04:13:03;;;;;;;;;;;1.80;99.90;;;;;;5133784;27;19992;-32
2024/01/15 04:15:30;;;;;;;;;;;1.80;99.90;;;;;;5133697;27;20010;-33
2024/01/15 04:17:56;;;;;;;;;;;1.80;99.90;;;;;;5133063;27;19923;-31
2024/01/15 04:20:23;;;;;;;;;;;1.80;99.90;;;;;;5133292;27;19927;-31
2024/01/15 04:22:49;;;;;;;;;;;1.70;99.90;;;;;;5115885;27;19927;-33
2024/01/15 04:25:17;;;;;;;;;;;1.80;99.90;;;;;;5133229;27;19966;-31
2024/01/15 04:27:44;;;;;;;;;;;1.70;99.90;;;;;;5133459;27;20284;-32
2024/01/15 04:30:11;;;;;;;;;;;1.70;99.90;;;;;;5133406;27;19953;-32
2024/01/15 04:32:38;;;;;;;;;;;1.70;99.90;;;;;;5115526;27;19992;-32
2024/01/15 04:35:05;;;;;;;;;;;1.80;99.90;;;;;;5115361;27;20314;-31
2024/01/15 04:37:31;;;;;;;;;;;1.70;99.90;;;;;;5111384;27;20355;-32
2024/01/15 04:39:58;;;;;;;;;;;1.80;99.90;;;;;;5121588;27;19928;-32
2024/01/15 04:42:26;;;;;;;;;;;1.80;99.90;;;;;;5112832;27;20018;-33
2024/01/15 04:44:52;;;;;;;;;;;1.80;99.90;;;;;;5132625;27;19968;-33
2024/01/15 04:47:19;;;;;;;;;;;1.80;99.90;;;;;;5133429;27;19923;-31
2024/01/15 04:49:46;;;;;;;;;;;1.80;99.90;;;;;;5114892;28;19927;-32
2024/01/15 04:52:12;;;;;;;;;;;1.80;99.90;;;;;;5115037;28;20316;-33
2024/01/15 04:54:39;;;;;;;;;;;1.90;99.90;;;;;;5115366;28;19928;-32
2024/01/15 04:57:06;;;;;;;;;;;1.90;99.90;;;;;;5114213;28;19928;-31
2024/01/15 04:59:34;;;;;;;;;;;1.80;99.90;;;;;;5114775;28;20036;-32
2024/01/15 05:02:00;;;;;;;;;;;1.80;99.90;;;;;;5132805;28;20333;-32
2024/01/15 05:04:27;;;;;;;;;;;1.90;99.90;;;;;;5115262;28;19923;-32
2024/01/15 05:06:54;;;;;;;;;;;1.90;99.90;;;;;;5114489;28;19972;-33
2024/01/15 05:09:20;;;;;;;;;;;1.90;99.90;;;;;;5132360;28;20503;-32
2024/01/15 05:11:47;;;;;;;;;;;1.80;99.90;;;;;;5113847;28;19923;-32
2024/01/15 05:14:13;;;;;;;;;;;1.80;99.90;;;;;;5114606;28;19923;-32
2024/01/15 05:16:45;;;;;;;;;;;1.70;99.90;;;;;;5115596;28;19923;-32
2024/01/15 05:19:11;;;;;;;;;;;1.80;99.90;;;;;;5112685;28;19967;-33
2024/01/15 05:21:38;;;;;;;;;;;1.70;99.90;;;;;;5120558;28;19927;-33
2024/01/15 05:24:05;;;;;;;;;;;1.70;99.90;;;;;;5129441;27;19924;-32
2024/01/15 05:26:31;;;;;;;;;;;1.60;99.90;;;;;;5114569;27;20039;-32
2024/01/15 05:28:58;;;;;;;;;;;1.60;99.90;;;;;;5117641;27;19972;-32
2024/01/15 05:31:24;;;;;;;;;;;1.80;99.90;;;;;;5118479;27;20379;-33
2024/01/15 05:33:53;;;;;;;;;;;1.60;99.90;;;;;;5137269;27;19976;-32
2024/01/15 05:36:18;;;;;;;;;;;1.60;99.90;;;;;;5118685;27;20290;-33
2024/01/15 05:38:45;;;;;;;;;;;1.60;99.90;;;;;;5118637;27;19934;-32
2024/01/15 05:41:13;;;;;;;;;;;1.60;99.90;;;;;;5118461;27;19927;-32
2024/01/15 05:43:39;;;;;;;;;;;1.60;99.90;;;;;;5153228;27;19923;-32
2024/01/15 05:46:06;;;;;;;;;;;1.50;99.90;;;;;;5118588;27;19927;-33
2024/01/15 05:48:33;;;;;;;;;;;1.60;99.90;;;;;;5136525;27;19924;-33
2024/01/15 05:51:00;;;;;;;;;;;1.50;99.90;;;;;;5118473;27;20067;-32
2024/01/15 05:53:27;;;;;;;;;;;1.60;99.90;;;;;;5136716;27;19924;-34
2024/01/15 05:55:55;;;;;;;;;;;1.50;99.90;;;;;;5118223;27;19972;-32
2024/01/15 05:58:22;;;;;;;;;;;1.50;99.90;;;;;;5113169;28;19924;-32
2024/01/15 06:00:49;;;;;;;;;;;1.60;99.90;;;;;;5115739;28;20000;-32
2024/01/15 06:03:16;;;;;;;;;;;1.50;99.90;;;;;;5116150;28;20275;-33
2024/01/15 06:05:43;;;;;;;;;;;1.50;99.90;;;;;;5097444;28;19924;-32
2024/01/15 06:08:11;;;;;;;;;;;1.50;99.90;;;;;;5115486;28;19931;-33
2024/01/15 06:10:38;;;;;;;;;;;1.40;99.90;;;;;;5115556;28;19924;-33
2024/01/15 06:13:05;;;;;;;;;;;1.50;99.90;;;;;;5115344;28;20345;-32
2024/01/15 06:15:32;;;;;;;;;;;1.40;99.90;;;;;;5097884;28;19973;-32
2024/01/15 06:17:58;;;;;;;;;;;1.40;99.90;;;;;;5115430;28;19985;-32
2024/01/15 06:20:25;;;;;;;;;;;1.40;99.90;;;;;;5115743;28;19992;-32
2024/01/15 06:22:51;;;;;;;;;;;1.40;99.90;;;;;;5115398;28;19924;-32
2024/01/15 06:25:19;;;;;;;;;;;1.40;99.90;;;;;;5097823;28;19923;-32
2024/01/15 06:27:46;;;;;;;;;;;1.40;99.90;;;;;;5089156;28;19924;-32
2024/01/15 06:30:13;;;;;;;;;;;1.50;99.90;;;;;;5099474;28;19923;-32
2024/01/15 06:32:40;;;;;;;;;;;1.40;99.90;;;;;;5097112;28;19924;-32
2024/01/15 06:35:07;;;;;;;;;;;1.40;99.90;;;;;;5076029;28;19974;-32
2024/01/15 06:37:33;;;;;;;;;;;1.40;99.90;;;;;;5098612;28;20000;-32
2024/01/15 06:40:00;;;;;;;;;;;1.40;99.90;;;;;;5109087;28;19966;-32
2024/01/15 06:42:28;;;;;;;;;;;1.30;99.90;;;;;;5076480;28;19969;-33
2024/01/15 06:44:55;;;;;;;;;;;1.30;99.90;;;;;;5077128;28;19974;-32
2024/01/15 06:47:22;;;;;;;;;;;1.30;99.90;;;;;;5095805;28;19928;-33
2024/01/15 06:49:50;;;;;;;;;;;1.30;99.90;;;;;;5096904;28;20291;-32
2024/01/15 06:52:17;;;;;;;;;;;1.30;99.90;;;;;;5115156;28;19970;-32
2024/01/15 06:54:43;;;;;;;;;;;1.20;99.90;;;;;;5115040;28;19923;-34
2024/01/15 06:57:10;;;;;;;;;;;1.30;99.90;;;;;;5096892;28;19928;-33
2024/01/15 06:59:38;;;;;;;;;;;1.20;99.90;;;;;;5110891;27;19976;-33
2024/01/15 07:02:05;;;;;;;;;;;1.20;99.90;;;;;;5117136;27;19923;-34
2024/01/15 07:04:31;;;;;;;;;;;1.20;99.90;;;;;;5116710;27;19923;-32
2024/01/15 07:06:58;;;;;;;;;;;1.30;99.90;;;;;;5113264;27;19977;-32
2024/01/15 07:09:25;;;;;;;;;;;1.30;99.90;;;;;;5129945;27;20444;-33
2024/01/15 07:11:51;;;;;;;;;;;1.30;99.90;;;;;;5112141;27;20483;-32
2024/01/15 07:14:18;;;;;;;;;;;1.40;99.90;;;;;;5132321;27;19981;-32
2024/01/15 07:16:46;;;;;;;;;;;1.30;99.90;;;;;;5096050;28;19923;-32
2024/01/15 07:19:12;;;;;;;;;;;1.30;99.90;;;;;;5099944;27;19972;-33
2024/01/15 07:21:42;;;;;;;;;;;1.30;99.90;;;;;;5115451;27;19923;-32
2024/01/15 07:24:09;;;;;;;;;;;1.30;99.90;;;;;;5115547;27;19927;-32
2024/01/15 07:26:35;;;;;;;;;;;1.30;99.90;;;;;;5115691;27;19934;-32
2024/01/15 07:29:03;;;;;;;;;;;1.30;99.90;;;;;;5106824;27;19939;-33
2024/01/15 07:31:29;;;;;;;;;;;1.30;99.90;;;;;;5113085;27;20332;-34
2024/01/15 07:33:57;;;;;;;;;;;1.30;99.90;;;;;;5113200;27;19924;-31
2024/01/15 07:36:24;;;;;;;;;;;1.30;99.90;;;;;;5130560;27;19923;-33
2024/01/15 07:38:51;;;;;;;;;;;1.30;99.90;;;;;;5131414;27;19923;-31
2024/01/15 07:41:17;;;;;;;;;;;1.20;99.90;;;;;;5125815;27;20343;-32
2024/01/15 07:43:44;;;;;;;;;;;1.20;99.90;;;;;;5114108;27;19976;-32
2024/01/15 07:46:11;;;;;;;;;;;1.20;99.90;;;;;;5109481;27;20385;-32
2024/01/15 07:48:37;;;;;;;;;;;1.20;99.90;;;;;;5130425;27;20257;-31
2024/01/15 07:51:05;;;;;;;;;;;1.20;99.90;;;;;;5129102;27;19984;-31
2024/01/15 07:53:32;;;;;;;;;;;1.20;99.90;;;;;;5124834;27;19924;-32
2024/01/15 07:55:59;;;;;;;;;;;1.20;99.90;;;;;;5098969;27;20271;-30
2024/01/15 07:58:25;;;;;;;;;;;1.20;99.90;;;;;;5125144;27;19923;-32
2024/01/15 08:00:52;;;;;;;;;;;1.10;99.90;;;;;;5121963;27;19924;-32
2024/01/15 08:03:19;;;;;;;;;;;1.20;99.90;;;;;;5121269;27;19924;-32
2024/01/15 08:05:46;;;;;;;;;;;1.10;99.90;;;;;;5101808;28;20157;-32
2024/01/15 08:08:14;;;;;;;;;;;1.10;99.90;;;;;;5112229;27;19923;-32
2024/01/15 08:10:41;;;;;;;;;;;1.10;99.90;;;;;;5112516;27;20365;-32
2024/01/15 08:13:09;;;;;;;;;;;1.10;99.90;;;;;;5114943;27;19927;-32
2024/01/15 08:15:35;;;;;;;;;;;1.10;99.90;;;;;;5106917;27;19974;-32
2024/01/15 08:18:02;;;;;;;;;;;1.10;99.90;;;;;;5110368;27;19976;-33
2024/01/15 08:20:29;;;;;;;;;;;1.10;99.90;;;;;;5132255;27;20290;-34
2024/01/15 08:22:56;;;;;;;;;;;1.20;99.90;;;;;;5132382;27;19927;-32
2024/01/15 08:25:24;;;;;;;;;;;1.10;99.90;;;;;;5113495;27;19924;-32
2024/01/15 08:27:50;;;;;;;;;;;1.20;99.90;;;;;;5132051;27;20426;-32
2024/01/15 08:30:18;;;;;;;;;;;1.20;99.90;;;;;;5132555;27;19984;-33
2024/01/15 08:32:45;;;;;;;;;;;1.20;99.90;;;;;;5132331;27;19923;-33
2024/01/15 08:35:11;;;;;;;;;;;1.20;99.90;;;;;;5132435;27;19983;-32
2024/01/15 08:37:38;;;;;;;;;;;1.20;99.90;;;;;;5132172;27;19924;-32
2024/01/15 08:40:05;;;;;;;;;;;1.20;99.90;;;;;;5113803;27;19924;-33
2024/01/15 08:42:33;;;;;;;;;;;1.20;99.90;;;;;;5113721;27;20413;-32
2024/01/15 08:45:00;;;;;;;;;;;1.20;99.90;;;;;;5132145;27;20443;-33
2024/01/15 08:47:27;;;;;;;;;;;1.20;99.90;;;;;;5132232;27;20279;-32
2024/01/15 08:49:54;;;;;;;;;;;1.30;99.90;;;;;;5114080;27;19931;-32
2024/01/15 08:52:21;;;;;;;;;;;1.40;99.90;;;;;;5131844;27;19928;-31
2024/01/15 08:54:47;;;;;;;;;;;1.40;99.90;;;;;;5131201;27;19923;-32
2024/01/15 08:57:14;;;;;;;;;;;1.40;99.90;;;;;;5113180;28;19923;-32
2024/01/15 08:59:42;;;;;;;;;;;1.40;99.90;;;;;;5113759;28;19923;-32
2024/01/15 09:02:09;;;;;;;;;;;1.40;99.90;;;;;;5131994;28;19923;-34
2024/01/15 09:04:35;;;;;;;;;;;1.50;99.90;;;;;;5131814;28;19928;-32
2024/01/15 09:07:02;;;;;;;;;;;1.50;99.90;;;;;;5113702;28;19972;-33
2024/01/15 09:09:29;;;;;;;;;;;1.50;99.90;;;;;;5113614;28;19924;-32
2024/01/15 09:11:56;;;;;;;;;;;1.60;99.90;;;;;;5113579;28;19928;-30
2024/01/15 09:14:24;;;;;;;;;;;1.60;99.90;;;;;;5131833;28;20609;-34
2024/01/15 09:16:52;;;;;;;;;;;1.60;99.90;;;;;;5131865;28;19931;-32
2024/01/15 09:19:18;;;;;;;;;;;1.60;99.90;;;;;;5131449;28;20185;-33
2024/01/15 09:21:45;;;;;;;;;;;1.60;99.90;;;;;;5113873;28;19988;-32
2024/01/15 09:24:12;;;;;;;;;;;1.70;99.90;;;;;;5131641;28;19924;-32
2024/01/15 09:26:38;;;;;;;;;;;1.70;99.90;;;;;;5131969;28;19923;-31
2024/01/15 09:29:05;;;;;;;;;;;1.70;99.90;;;;;;5113436;28;19930;-31
2024/01/15 09:31:32;;;;;;;;;;;1.80;99.90;;;;;;5113079;28;19930;-32
2024/01/15 09:34:02;;;;;;;;;;;1.90;99.90;;;;;;5131694;28;19924;-32
2024/01/15 09:36:28;;;;;;;;;;;1.90;99.90;;;;;;5113176;28;19923;-32
2024/01/15 09:38:55;;;;;;;;;;;1.90;99.90;;;;;;5112792;28;19977;-31
2024/01/15 09:41:22;;;;;;;;;;;1.90;99.90;;;;;;5131599;28;19923;-32
2024/01/15 09:43:48;;;;;;;;;;;1.90;99.90;;;;;;5113755;28;19923;-31
2024/01/15 09:46:15;;;;;;;;;;;1.90;99.90;;;;;;5131457;28;19923;-30
2024/01/15 09:48:42;;;;;;;;;;;2.00;99.90;;;;;;5112976;28;19976;-32
2024/01/15 09:51:10;;;;;;;;;;;2.00;99.90;;;;;;5112952;28;19978;-32
2024/01/15 09:53:37;;;;;;;;;;;2.10;99.90;;;;;;5131381;28;19931;-32
2024/01/15 09:56:04;;;;;;;;;;;2.20;99.90;;;;;;5131624;28;20010;-32
2024/01/15 09:58:31;;;;;;;;;;;2.30;99.90;;;;;;5112692;28;20010;-31
2024/01/15 10:00:58;;;;;;;;;;;2.40;99.90;;;;;;5131639;28;19927;-33
2024/01/15 10:03:24;;;;;;;;;;;2.40;99.90;;;;;;5113206;28;19977;-33
2024/01/15 10:05:51;;;;;;;;;;;2.40;99.90;;;;;;5112843;28;19976;-32
2024/01/15 10:08:19;;;;;;;;;;;2.40;99.90;;;;;;5111410;27;19932;-32
2024/01/15 10:10:46;;;;;;;;;;;2.50;99.90;;;;;;5116455;27;19923;-33
2024/01/15 10:13:14;;;;;;;;;;;2.50;99.90;;;;;;5116315;27;19976;-32
2024/01/15 10:15:42;;;;;;;;;;;2.60;99.90;;;;;;5135061;27;20462;-31
2024/01/15 10:18:09;;;;;;;;;;;2.50;99.90;;;;;;5116237;27;20010;-31
2024/01/15 10:20:35;;;;;;;;;;;2.40;99.90;;;;;;5134727;27;20344;-32
2024/01/15 10:23:02;;;;;;;;;;;2.50;99.90;;;;;;5116374;27;19923;-33
2024/01/15 10:25:30;;;;;;;;;;;2.60;99.90;;;;;;5134915;27;19972;-33
2024/01/15 10:28:00;;;;;;;;;;;2.60;99.90;;;;;;5116763;27;19957;-32
2024/01/15 10:30:27;;;;;;;;;;;2.50;99.90;;;;;;5116458;27;19927;-32
2024/01/15 10:33:01;;;;;;;;;;;2.50;99.90;;;;;;5116161;27;19924;-34
2024/01/15 10:35:28;;;;;;;;;;;2.50;99.90;;;;;;5134338;27;20370;-32
2024/01/15 10:37:54;;;;;;;;;;;2.40;99.90;;;;;;5134467;27;19927;-35
2024/01/15 10:40:21;;;;;;;;;;;2.50;99.90;;;;;;5134787;27;19923;-33
2024/01/15 10:42:49;;;;;;;;;;;2.50;99.90;;;;;;5116050;27;20289;-32
2024/01/15 10:45:16;;;;;;;;;;;2.50;99.90;;;;;;5115715;27;19944;-33
2024/01/15 10:47:42;;;;;;;;;;;2.50;99.90;;;;;;5115909;27;19924;-31
2024/01/15 10:50:09;;;;;;;;;;;2.50;99.90;;;;;;5134344;27;20403;-32
2024/01/15 10:52:36;;;;;;;;;;;2.40;99.90;;;;;;5113205;27;20050;-33
2024/01/15 10:55:03;;;;;;;;;;;2.40;99.90;;;;;;5114879;27;20333;-32
2024/01/15 10:57:30;;;;;;;;;;;2.40;99.90;;;;;;5114453;27;19923;-32
2024/01/15 10:59:58;;;;;;;;;;;2.40;99.90;;;;;;5132875;27;20215;-32
2024/01/15 11:02:25;;;;;;;;;;;2.50;99.90;;;;;;5114267;27;19949;-31
2024/01/15 11:04:52;;;;;;;;;;;2.50;99.90;;;;;;5115041;27;19932;-32
2024/01/15 11:07:18;;;;;;;;;;;2.50;99.90;;;;;;5132927;27;20356;-31
2024/01/15 11:09:46;;;;;;;;;;;2.60;99.90;;;;;;5132599;27;19927;-32
2024/01/15 11:12:13;;;;;;;;;;;2.60;99.90;;;;;;5115295;27;19983;-32
2024/01/15 11:14:40;;;;;;;;;;;2.60;99.90;;;;;;5133543;27;19973;-31
2024/01/15 11:17:09;;;;;;;;;;;2.70;99.90;;;;;;5133723;27;19959;-31
2024/01/15 11:19:36;;;;;;;;;;;2.60;99.90;;;;;;5133733;27;19924;-32
2024/01/15 11:22:03;;;;;;;;;;;2.70;99.90;;;;;;5132440;27;19977;-32
2024/01/15 11:24:37;;;;;;;;;;;2.60;99.90;;;;;;5132972;27;20005;-31
2024/01/15 11:27:03;;;;;;;;;;;2.60;99.90;;;;;;5133471;27;19927;-32
2024/01/15 11:29:30;;;;;;;;;;;2.60;99.90;;;;;;5133655;27;20398;-31
2024/01/15 11:31:58;;;;;;;;;;;2.60;99.90;;;;;;5133200;27;19923;-32
2024/01/15 11:34:50;;;;;;;;;;;2.70;99.90;;;;;;5133391;27;20424;-30
2024/01/15 11:37:17;;;;;;;;;;;2.70;99.90;;;;;;5132633;27;19974;-32
2024/01/15 11:39:46;;;;;;;;;;;2.60;99.90;;;;;;5128608;27;20319;-31
2024/01/15 11:42:13;;;;;;;;;;;2.60;99.90;;;;;;5112660;28;20255;-31
2024/01/15 11:44:40;;;;;;;;;;;2.60;99.90;;;;;;5094418;28;19924;-31
2024/01/15 11:47:06;;;;;;;;;;;2.70;99.90;;;;;;5114436;27;20264;-31
2024/01/15 11:49:38;;;;;;;;;;;2.60;99.90;;;;;;5114504;27;19923;-32
2024/01/15 11:52:05;;;;;;;;;;;2.60;99.90;;;;;;5132971;27;20328;-33
2024/01/15 11:54:31;;;;;;;;;;;2.60;99.90;;;;;;5114700;27;19972;-31
2024/01/15 11:56:58;;;;;;;;;;;2.60;99.90;;;;;;5114177;27;19928;-31
2024/01/15 11:59:25;;;;;;;;;;;2.70;99.90;;;;;;5114191;27;19972;-32
2024/01/15 12:01:51;;;;;;;;;;;2.70;99.90;;;;;;5132708;27;19928;-32
2024/01/15 12:04:19;;;;;;;;;;;2.70;99.90;;;;;;5131377;27;19981;-32
2024/01/15 12:06:47;;;;;;;;;;;2.60;99.90;;;;;;5114843;27;19930;-32
2024/01/15 12:09:14;;;;;;;;;;;2.50;99.90;;;;;;5132720;27;19976;-32
2024/01/15 12:11:40;;;;;;;;;;;2.40;99.90;;;;;;5132600;27;19924;-34
2024/01/15 12:14:07;;;;;;;;;;;2.30;99.90;;;;;;5114444;27;19976;-32
2024/01/15 12:16:34;;;;;;;;;;;2.20;99.90;;;;;;5114648;27;19980;-32
2024/01/15 12:19:01;;;;;;;;;;;2.10;99.90;;;;;;5114579;27;20310;-33
2024/01/15 12:21:28;;;;;;;;;;;2.00;99.90;;;;;;5114837;27;19930;-31
2024/01/15 12:23:58;;;;;;;;;;;2.00;99.90;;;;;;5114379;27;19929;-33
2024/01/15 12:26:25;;;;;;;;;;;1.90;99.90;;;;;;5130450;27;19924;-32
2024/01/15 12:28:52;;;;;;;;;;;1.90;99.90;;;;;;5131852;27;20298;-32
2024/01/15 12:31:19;;;;;;;;;;;1.80;99.90;;;;;;5131893;27;19923;-33
2024/01/15 12:33:46;;;;;;;;;;;1.80;99.90;;;;;;5106312;27;19928;-32
2024/01/15 12:36:13;;;;;;;;;;;1.80;99.90;;;;;;5124358;27;20344;-32
2024/01/15 12:38:40;;;;;;;;;;;1.80;99.90;;;;;;5114918;27;19924;-33
2024/01/15 12:41:08;;;;;;;;;;;1.80;99.90;;;;;;5133209;27;19927;-33
2024/01/15 12:43:35;;;;;;;;;;;1.80;99.90;;;;;;5112980;27;19924;-32
2024/01/15 12:46:01;;;;;;;;;;;1.80;99.90;;;;;;5115056;27;19927;-33
2024/01/15 12:48:28;;;;;;;;;;;1.80;99.90;;;;;;5115270;27;19948;-32
2024/01/15 12:50:55;;;;;;;;;;;1.80;99.90;;;;;;5115415;28;19971;-33
2024/01/15 12:53:21;;;;;;;;;;;1.80;99.90;;;;;;5133697;27;20015;-33
2024/01/15 12:55:48;;;;;;;;;;;1.90;99.90;;;;;;5133378;27;19924;-33
2024/01/15 12:58:16;;;;;;;;;;;1.90;99.90;;;;;;5114683;28;19923;-34
2024/01/15 13:00:43;;;;;;;;;;;1.90;99.90;;;;;;5133234;28;19923;-33
2024/01/15 13:03:09;;;;;;;;;;;1.90;99.90;;;;;;5115335;28;19987;-32
2024/01/15 13:05:36;;;;;;;;;;;1.90;99.90;;;;;;5133518;28;19924;-32
2024/01/15 13:08:04;;;;;;;;;;;1.90;99.90;;;;;;5114730;28;19923;-33
2024/01/15 13:10:30;;;;;;;;;;;2.00;99.90;;;;;;5115232;28;19979;-33
2024/01/15 13:12:57;;;;;;;;;;;2.10;99.90;;;;;;5114703;28;19927;-31
2024/01/15 13:15:25;;;;;;;;;;;2.10;99.90;;;;;;5133260;28;19987;-31
2024/01/15 13:17:51;;;;;;;;;;;2.10;99.90;;;;;;5133334;28;19927;-31
2024/01/15 13:20:18;;;;;;;;;;;2.10;99.90;;;;;;5133100;28;19976;-32
2024/01/15 13:22:45;;;;;;;;;;;2.10;99.90;;;;;;5115085;28;19927;-31
2024/01/15 13:25:12;;;;;;;;;;;2.10;99.90;;;;;;5132926;28;20294;-31
2024/01/15 13:27:39;;;;;;;;;;;2.20;99.90;;;;;;5132987;28;20324;-31
2024/01/15 13:30:07;;;;;;;;;;;2.20;99.90;;;;;;5114953;28;19976;-32
2024/01/15 13:32:35;;;;;;;;;;;2.30;99.90;;;;;;5133220;28;19931;-33
2024/01/15 13:35:02;;;;;;;;;;;2.20;99.90;;;;;;5114938;28;19970;-33
2024/01/15 13:37:29;;;;;;;;;;;2.20;99.90;;;;;;5133257;28;20399;-33
2024/01/15 13:39:56;;;;;;;;;;;2.10;99.90;;;;;;5114679;28;20371;-34
2024/01/15 13:42:23;;;;;;;;;;;2.10;99.90;;;;;;5133061;28;20299;-34
2024/01/15 13:44:49;;;;;;;;;;;2.10;99.90;;;;;;5135644;27;19934;-34
2024/01/15 13:47:16;;;;;;;;;;;2.00;99.90;;;;;;5119157;27;20444;-33
2024/01/15 13:49:44;;;;;;;;;;;2.00;99.90;;;;;;5118931;27;19959;-33
2024/01/15 13:52:10;;;;;;;;;;;2.00;99.90;;;;;;5118583;27;19935;-33
2024/01/15 13:54:38;;;;;;;;;;;2.00;99.90;;;;;;5137274;27;19923;-33
2024/01/15 13:57:05;;;;;;;;;;;2.00;99.90;;;;;;5118428;27;20433;-34
2024/01/15 13:59:32;;;;;;;;;;;2.00;99.90;;;;;;5136947;27;19929;-31
2024/01/15 14:01:58;;;;;;;;;;;2.00;99.90;;;;;;5118467;27;19924;-33
2024/01/15 14:04:25;;;;;;;;;;;2.10;99.90;;;;;;5118621;27;19927;-32
2024/01/15 14:06:53;;;;;;;;;;;2.20;99.90;;;;;;5136642;27;20259;-32
2024/01/15 14:09:21;;;;;;;;;;;2.10;99.90;;;;;;5118325;27;19931;-32
2024/01/15 14:11:48;;;;;;;;;;;2.20;99.90;;;;;;5118245;27;20445;-34
2024/01/15 14:14:15;;;;;;;;;;;2.20;99.90;;;;;;5117978;27;20416;-32
2024/01/15 14:16:41;;;;;;;;;;;2.20;99.90;;;;;;5136436;27;19927;-32
2024/01/15 14:19:09;;;;;;;;;;;2.30;99.90;;;;;;5117868;27;19931;-33
2024/01/15 14:21:36;;;;;;;;;;;2.30;99.90;;;;;;5118098;27;19931;-34
2024/01/15 14:24:04;;;;;;;;;;;2.30;99.90;;;;;;5136093;27;19923;-33
2024/01/15 14:26:31;;;;;;;;;;;2.20;99.90;;;;;;5118009;27;19933;-33
2024/01/15 14:28:59;;;;;;;;;;;2.20;99.90;;;;;;5118141;27;19938;-33